This is the latest recevied weather packets stored in our database for station/object W3EJE-13. If no packets are shown the sender has not sent any weather packets the latest 1 day(s).
| Time | Temp. | Humidity | Pressure | Rain* | Wind** | Luminosity | Snow |
|---|---|---|---|---|---|---|---|
| 1777977597 | 16.67° C | 69% | 1012.7 hPa | 0 mm | 3.13 m/s, 294° | 12 W/m² | - |
| 1777977294 | 15.56° C | 72% | 1012.7 hPa | 0 mm | 1.34 m/s, 279° | 9 W/m² | - |
| 1777976991 | 15° C | 74% | 1012.5 hPa | 0 mm | 0.89 m/s, 257° | 8 W/m² | - |
| 1777976688 | 13.89° C | 78% | 1012.6 hPa | 0 mm | 1.34 m/s, 3° | 3 W/m² | - |
| 1777976385 | 12.78° C | 81% | 1012.3 hPa | 0 mm | 0 m/s | 2 W/m² | - |
| 1777976078 | 13.33° C | 81% | 1012.3 hPa | 0 mm | 0 m/s | 1 W/m² | - |
| 1777975774 | 12.78° C | 84% | 1012.4 hPa | 0 mm | 0 m/s | 0 W/m² | - |
| 1777975472 | 12.22° C | 87% | 1011.9 hPa | 0 mm | 0 m/s | 0 W/m² | - |
| 1777975167 | 11.67° C | 89% | 1012 hPa | 0 mm | 0 m/s | 0 W/m² | - |
| 1777974864 | 11.67° C | 89% | 1012 hPa | 0 mm | 0 m/s | 0 W/m² | - |
| 1777974560 | 11.67° C | 91% | 1012.5 hPa | 0 mm | 0 m/s | 0 W/m² | - |
| 1777974258 | 11.11° C | 91% | 1012.1 hPa | 0 mm | 0.89 m/s, 156° | 0 W/m² | - |
| 1777973954 | 11.67° C | 91% | 1012 hPa | 0 mm | 0 m/s | 0 W/m² | - |
| 1777973651 | 11.67° C | 91% | 1012.3 hPa | 0 mm | 0.45 m/s, 210° | 0 W/m² | - |
| 1777973348 | 11.11° C | 92% | 1011.9 hPa | 0 mm | 0.89 m/s, 176° | 0 W/m² | - |
| 1777973046 | 11.11° C | 92% | 1012.1 hPa | 0 mm | 0.45 m/s, 185° | 0 W/m² | - |
| 1777972743 | 11.67° C | 91% | 1012 hPa | 0 mm | 0 m/s | 0 W/m² | - |
| 1777972441 | 11.67° C | 90% | 1011.9 hPa | 0 mm | 0 m/s | 0 W/m² | - |
| 1777972138 | 11.67° C | 90% | 1011.9 hPa | 0 mm | 0.89 m/s, 180° | 0 W/m² | - |
| 1777971836 | 12.22° C | 88% | 1011.9 hPa | 0 mm | 0 m/s | 0 W/m² | - |
| 1777971533 | 12.78° C | 87% | 1012 hPa | 0 mm | 0.45 m/s, 215° | 0 W/m² | - |
| 1777971231 | 13.33° C | 86% | 1011.9 hPa | 0 mm | 0 m/s | 0 W/m² | - |
| 1777970929 | 13.89° C | 84% | 1012.3 hPa | 0 mm | 0.45 m/s, 206° | 0 W/m² | - |
| 1777970627 | 14.44° C | 83% | 1012.3 hPa | 0 mm | 0.45 m/s, 208° | 0 W/m² | - |
| 1777970324 | 15° C | 82% | 1012.3 hPa | 0 mm | 0 m/s | 0 W/m² | - |
* Rain latest hour (hover to see other rain measurements)
** Current wind speed in m/s (hover to see current wind gust speed)